createdAt,value
2023-04-01T00:02:06.899Z,100430.90
2023-04-01T00:04:50.087Z,100433.09
2023-04-01T00:07:23.444Z,100426.09
2023-04-01T00:09:57.558Z,100430.45
2023-04-01T00:12:30.489Z,100433.29
2023-04-01T00:15:01.967Z,100434.99
2023-04-01T00:17:35.050Z,100445.74
2023-04-01T00:20:06.994Z,100440.05
2023-04-01T00:22:39.873Z,100440.74
2023-04-01T00:25:13.173Z,100444.27
2023-04-01T00:27:46.187Z,100446.98
2023-04-01T00:30:20.136Z,100443.13
2023-04-01T00:32:54.058Z,100453.73
2023-04-01T00:35:22.266Z,100454.28
2023-04-01T00:37:50.631Z,100460.49
2023-04-01T00:40:39.232Z,100473.11
2023-04-01T00:43:22.936Z,100477.33
2023-04-01T00:45:54.305Z,100476.16
2023-04-01T00:48:25.103Z,100491.91
2023-04-01T00:51:25.873Z,100479.55
2023-04-01T00:53:57.991Z,100486.42
2023-04-01T00:56:36.910Z,100488.41
2023-04-01T00:59:13.590Z,100489.27
2023-04-01T01:01:47.185Z,100492.27
2023-04-01T01:04:36.218Z,100471.18
2023-04-01T01:07:22.598Z,100485.77
2023-04-01T01:10:08.994Z,100472.36
2023-04-01T01:12:48.682Z,100481.09
2023-04-01T01:15:34.841Z,100473.90
2023-04-01T01:18:17.093Z,100472.91
2023-04-01T01:21:13.323Z,100466.73
2023-04-01T01:24:14.876Z,100464.58
2023-04-01T01:26:43.205Z,100459.74
2023-04-01T01:30:09.705Z,100457.22
2023-04-01T01:33:15.181Z,100454.73
2023-04-01T01:35:48.189Z,100459.77
2023-04-01T01:38:18.551Z,100444.90
2023-04-01T01:40:58.955Z,100444.90
2023-04-01T01:43:33.188Z,100436.00
2023-04-01T01:46:03.252Z,100447.74
2023-04-01T01:48:37.153Z,100443.20
2023-04-01T01:51:07.679Z,100436.03
2023-04-01T01:53:40.545Z,100432.05
2023-04-01T01:56:09.488Z,100428.84
2023-04-01T01:58:56.398Z,100417.13
2023-04-01T02:01:29.807Z,100420.47
2023-04-01T02:03:57.949Z,100401.57
2023-04-01T02:06:28.399Z,100403.27
2023-04-01T02:08:59.228Z,100419.63
2023-04-01T02:11:56.146Z,100423.97
2023-04-01T02:14:56.611Z,100412.79
2023-04-01T02:17:32.348Z,100396.90
2023-04-01T02:20:23.445Z,100391.21
2023-04-01T02:22:53.977Z,100402.26
2023-04-01T02:25:41.428Z,100398.60
2023-04-01T02:28:09.611Z,100401.41
2023-04-01T02:30:45.568Z,100395.75
2023-04-01T02:33:14.094Z,100408.77
2023-04-01T02:35:46.812Z,100412.95
2023-04-01T02:38:17.970Z,100412.59
2023-04-01T02:41:00.271Z,100405.40
2023-04-01T02:43:28.715Z,100411.91
2023-04-01T02:46:09.152Z,100409.75
2023-04-01T02:48:49.527Z,100410.56
2023-04-01T02:51:22.830Z,100406.58
2023-04-01T02:53:55.658Z,100397.23
2023-04-01T02:56:29.550Z,100403.24
2023-04-01T02:59:00.732Z,100406.58
2023-04-01T03:01:33.999Z,100404.22
2023-04-01T03:04:05.385Z,100398.89
2023-04-01T03:06:41.056Z,100397.68
2023-04-01T03:09:09.255Z,100407.55
2023-04-01T03:11:38.086Z,100412.04
2023-04-01T03:14:12.047Z,100415.41
2023-04-01T03:16:46.237Z,100399.52
2023-04-01T03:19:14.428Z,100419.75
2023-04-01T03:21:47.423Z,100399.84
2023-04-01T03:24:20.258Z,100425.96
2023-04-01T03:26:53.400Z,100400.88
2023-04-01T03:29:28.686Z,100413.93
2023-04-01T03:32:02.244Z,100403.37
2023-04-01T03:34:35.482Z,100409.06
2023-04-01T03:37:04.620Z,100421.78
2023-04-01T03:39:57.843Z,100406.38
2023-04-01T03:42:33.272Z,100412.72
2023-04-01T03:45:14.744Z,100413.73
2023-04-01T03:47:57.817Z,100411.74
2023-04-01T03:50:25.909Z,100404.52
2023-04-01T03:53:04.525Z,100420.77
2023-04-01T03:55:37.375Z,100413.54
2023-04-01T03:58:10.532Z,100406.70
2023-04-01T04:00:38.564Z,100397.48
2023-04-01T04:03:11.853Z,100400.46
2023-04-01T04:05:40.128Z,100392.78
2023-04-01T04:08:12.724Z,100401.28
2023-04-01T04:10:40.994Z,100406.15
2023-04-01T04:13:16.919Z,100409.48
2023-04-01T04:15:45.283Z,100415.17
2023-04-01T04:18:27.271Z,100407.82
2023-04-01T04:21:01.037Z,100413.51
2023-04-01T04:23:33.923Z,100404.65
2023-04-01T04:26:14.187Z,100421.19
2023-04-01T04:28:48.400Z,100410.17
2023-04-01T04:31:25.193Z,100406.97
2023-04-01T04:33:53.706Z,100423.35
2023-04-01T04:36:22.322Z,100427.37
2023-04-01T04:39:15.824Z,100418.70
2023-04-01T04:41:44.239Z,100437.93
2023-04-01T04:44:12.568Z,100429.73
2023-04-01T04:46:41.712Z,100441.92
2023-04-01T04:49:10.008Z,100447.61
2023-04-01T04:51:42.927Z,100445.45
2023-04-01T04:54:16.291Z,100459.22
2023-04-01T04:56:58.741Z,100445.32
2023-04-01T04:59:32.617Z,100452.52
2023-04-01T05:02:22.216Z,100448.20
2023-04-01T05:04:53.390Z,100446.53
2023-04-01T05:07:26.300Z,100447.58
2023-04-01T05:09:59.964Z,100449.90
2023-04-01T05:12:41.924Z,100453.07
2023-04-01T05:15:20.979Z,100450.23
2023-04-01T05:17:54.085Z,100443.88
2023-04-01T05:20:28.085Z,100442.21
2023-04-01T05:23:09.929Z,100443.39
2023-04-01T05:25:40.590Z,100451.40
2023-04-01T05:28:08.983Z,100448.59
2023-04-01T05:30:44.070Z,100448.75
2023-04-01T05:33:17.031Z,100448.75
2023-04-01T05:35:47.962Z,100446.76
2023-04-01T05:38:16.391Z,100450.75
2023-04-01T05:40:49.997Z,100453.59
2023-04-01T05:43:30.393Z,100448.07
2023-04-01T05:46:02.193Z,100444.54
2023-04-01T05:48:30.539Z,100449.08
2023-04-01T05:51:03.286Z,100453.59
2023-04-01T05:53:31.782Z,100452.91
2023-04-01T05:56:01.081Z,100430.67
2023-04-01T05:58:34.356Z,100450.23
2023-04-01T06:01:10.254Z,100451.53
2023-04-01T06:04:13.517Z,100461.57
2023-04-01T06:07:04.320Z,100457.22
2023-04-01T06:09:38.405Z,100454.21
2023-04-01T06:12:20.532Z,100444.99
2023-04-01T06:15:00.858Z,100444.18
2023-04-01T06:18:04.679Z,100454.37
2023-04-01T06:20:44.819Z,100464.09
2023-04-01T06:23:26.666Z,100454.51
2023-04-01T06:26:43.281Z,100477.63
2023-04-01T06:29:42.167Z,100450.65
2023-04-01T06:32:38.247Z,100449.63
2023-04-01T06:35:55.525Z,100430.84
2023-04-01T06:38:56.111Z,100451.50
2023-04-01T06:41:45.024Z,100437.24
2023-04-01T06:44:51.909Z,100468.77
2023-04-01T06:48:00.742Z,100439.44
2023-04-01T06:50:40.515Z,100433.32
2023-04-01T06:53:43.836Z,100454.57
2023-04-01T06:56:16.563Z,100437.96
2023-04-01T06:58:52.508Z,100452.55
2023-04-01T07:01:48.615Z,100441.17
2023-04-01T07:04:28.628Z,100440.80
2023-04-01T07:07:11.571Z,100427.08
2023-04-01T07:09:46.007Z,100430.67
2023-04-01T07:12:53.137Z,100428.81
2023-04-01T07:15:57.984Z,100413.80
2023-04-01T07:18:45.275Z,100421.52
2023-04-01T07:21:23.208Z,100426.03
2023-04-01T07:23:56.011Z,100420.60
2023-04-01T07:26:26.073Z,100410.89
2023-04-01T07:29:19.728Z,100424.07
2023-04-01T07:32:23.516Z,100414.69
2023-04-01T07:34:58.764Z,100412.27
2023-04-01T07:37:38.930Z,100438.36
2023-04-01T07:40:13.821Z,100432.60
2023-04-01T07:43:05.594Z,100431.98
2023-04-01T07:46:10.954Z,100439.50
2023-04-01T07:48:53.738Z,100443.49
2023-04-01T07:54:45.185Z,100419.78
2023-04-01T07:57:31.581Z,100428.16
2023-04-01T08:00:07.005Z,100414.85
2023-04-01T08:03:00.127Z,100427.08
2023-04-01T08:05:36.726Z,100431.85
2023-04-01T08:08:41.478Z,100428.88
2023-04-01T08:11:24.800Z,100424.66
2023-04-01T08:14:06.837Z,100457.68
2023-04-01T08:17:01.144Z,100444.24
2023-04-01T08:19:48.061Z,100447.35
2023-04-01T08:22:38.529Z,100425.70
2023-04-01T08:25:27.693Z,100456.34
2023-04-01T08:28:18.771Z,100419.23
2023-04-01T08:31:01.815Z,100429.92
2023-04-01T08:33:37.437Z,100434.79
2023-04-01T08:36:13.975Z,100439.24
2023-04-01T08:39:02.135Z,100446.63
2023-04-01T08:41:54.917Z,100443.66
2023-04-01T08:44:39.574Z,100442.21
2023-04-01T08:47:25.579Z,100455.75
2023-04-01T08:50:18.551Z,100439.77
2023-04-01T08:52:58.151Z,100442.28
2023-04-01T08:55:48.351Z,100447.91
2023-04-01T08:58:44.391Z,100453.59
2023-04-01T09:01:49.403Z,100443.23
2023-04-01T09:04:35.584Z,100458.98
2023-04-01T09:07:10.946Z,100467.16
2023-04-01T09:10:19.583Z,100455.88
2023-04-01T09:13:02.723Z,100464.41
2023-04-01T09:15:58.131Z,100460.52
2023-04-01T09:18:29.147Z,100470.46
2023-04-01T09:21:12.621Z,100498.32
2023-04-01T09:24:09.008Z,100472.55
2023-04-01T09:26:49.690Z,100484.49
2023-04-01T09:29:28.752Z,100467.91
2023-04-01T09:32:25.949Z,100468.05
2023-04-01T09:35:08.618Z,100466.15
2023-04-01T09:37:38.849Z,100465.82
2023-04-01T09:40:51.222Z,100479.09
2023-04-01T09:43:45.455Z,100475.66
2023-04-01T09:46:26.198Z,100479.03
2023-04-01T09:49:26.253Z,100468.93
2023-04-01T09:52:20.610Z,100498.71
2023-04-01T09:55:12.387Z,100471.70
2023-04-01T09:58:18.618Z,100460.13
2023-04-01T10:01:08.049Z,100473.99
2023-04-01T10:03:40.524Z,100484.55
2023-04-01T10:06:26.675Z,100469.29
2023-04-01T10:09:30.041Z,100455.45
2023-04-01T10:12:36.052Z,100474.81
2023-04-01T10:15:35.409Z,100470.40
2023-04-01T10:18:11.987Z,100452.61
2023-04-01T10:20:56.730Z,100458.86
2023-04-01T10:23:52.977Z,100452.91
2023-04-01T10:26:48.968Z,100463.86
2023-04-01T10:29:35.362Z,100461.51
2023-04-01T10:32:15.219Z,100469.12
2023-04-01T10:35:11.026Z,100466.38
2023-04-01T10:38:39.798Z,100470.56
2023-04-01T10:41:46.398Z,100472.49
2023-04-01T10:44:56.029Z,100461.02
2023-04-01T10:47:50.324Z,100456.96
2023-04-01T10:50:26.681Z,100474.81
2023-04-01T10:53:00.521Z,100452.48
2023-04-01T10:58:57.100Z,100452.16
2023-04-01T11:01:50.634Z,100454.31
2023-04-01T11:04:50.416Z,100462.75
2023-04-01T11:07:30.423Z,100466.93
2023-04-01T11:10:29.321Z,100456.57
2023-04-01T11:13:12.697Z,100456.02
2023-04-01T11:15:54.161Z,100450.88
2023-04-01T11:18:40.854Z,100462.88
2023-04-01T11:21:36.632Z,100448.43
2023-04-01T11:24:23.144Z,100452.32
2023-04-01T11:27:19.563Z,100464.94
2023-04-01T11:30:00.167Z,100448.30
2023-04-01T11:32:40.231Z,100451.01
2023-04-01T11:35:42.499Z,100458.14
2023-04-01T11:38:35.263Z,100448.62
2023-04-01T11:41:31.167Z,100445.91
2023-04-01T11:44:21.000Z,100469.45
2023-04-01T11:47:10.352Z,100440.45
2023-04-01T11:49:47.515Z,100463.63
2023-04-01T11:52:48.966Z,100458.17
2023-04-01T11:55:44.289Z,100460.03
2023-04-01T11:58:35.043Z,100473.47
2023-04-01T12:01:27.742Z,100459.55
2023-04-01T12:04:17.535Z,100468.08
2023-04-01T12:07:03.728Z,100469.02
2023-04-01T12:09:56.799Z,100467.26
2023-04-01T12:12:58.066Z,100470.46
2023-04-01T12:15:55.306Z,100485.90
2023-04-01T12:18:44.473Z,100477.33
2023-04-01T12:21:28.904Z,100474.81
2023-04-01T12:24:27.531Z,100499.07
2023-04-01T12:27:21.693Z,100487.14
2023-04-01T12:30:11.460Z,100504.44
2023-04-01T12:33:09.471Z,100497.90
2023-04-01T12:36:22.052Z,100504.24
2023-04-01T12:39:13.144Z,100507.38
2023-04-01T12:42:18.175Z,100514.73
2023-04-01T12:45:23.137Z,100517.12
2023-04-01T12:48:14.750Z,100509.02
2023-04-01T12:50:54.598Z,100507.87
2023-04-01T12:53:36.382Z,100514.27
2023-04-01T12:56:17.254Z,100525.59
2023-04-01T12:59:06.488Z,100500.67
2023-04-01T13:02:02.624Z,100500.12
2023-04-01T13:04:48.304Z,100513.91
2023-04-01T13:07:24.999Z,100499.23
2023-04-01T13:10:20.095Z,100499.86
2023-04-01T13:13:25.824Z,100496.33
2023-04-01T13:16:11.128Z,100484.27
2023-04-01T13:18:54.510Z,100496.00
2023-04-01T13:21:34.796Z,100495.41
2023-04-01T13:24:21.006Z,100504.27
2023-04-01T13:27:07.372Z,100499.27
2023-04-01T13:29:43.912Z,100500.25
2023-04-01T13:32:42.965Z,100496.23
2023-04-01T13:35:27.363Z,100495.38
2023-04-01T13:38:35.860Z,100501.59
2023-04-01T13:41:27.892Z,100499.07
2023-04-01T13:44:21.712Z,100493.22
2023-04-01T13:47:20.443Z,100494.98
2023-04-01T13:50:06.686Z,100494.53
2023-04-01T13:53:02.001Z,100501.91
2023-04-01T13:55:36.396Z,100515.62
2023-04-01T13:58:25.200Z,100499.43
2023-04-01T14:01:02.661Z,100495.38
2023-04-01T14:03:45.547Z,100495.25
2023-04-01T14:06:29.420Z,100499.30
2023-04-01T14:09:12.413Z,100496.20
2023-04-01T14:11:54.883Z,100498.81
2023-04-01T14:14:53.935Z,100497.87
2023-04-01T14:17:40.091Z,100492.63
2023-04-01T14:20:43.185Z,100495.38
2023-04-01T14:24:02.442Z,100496.20
2023-04-01T14:27:23.911Z,100487.04
2023-04-01T14:30:19.937Z,100469.45
2023-04-01T14:33:02.898Z,100471.45
2023-04-01T14:35:44.802Z,100470.73
2023-04-01T14:38:27.496Z,100473.73
2023-04-01T14:41:18.278Z,100472.62
2023-04-01T14:44:18.778Z,100475.95
2023-04-01T14:47:02.709Z,100477.63
2023-04-01T14:49:38.950Z,100490.96
2023-04-01T14:52:36.738Z,100501.20
2023-04-01T14:55:27.193Z,100520.62
2023-04-01T14:58:10.663Z,100510.52
2023-04-01T15:01:09.462Z,100500.74
2023-04-01T15:03:43.804Z,100500.74
2023-04-01T15:06:26.670Z,100497.41
2023-04-01T15:08:57.862Z,100491.59
2023-04-01T15:11:42.472Z,100504.77
2023-04-01T15:14:22.609Z,100505.16
2023-04-01T15:17:13.074Z,100510.12
2023-04-01T15:19:56.345Z,100508.23
2023-04-01T15:22:32.082Z,100511.34
2023-04-01T15:25:25.318Z,100508.36
2023-04-01T15:28:14.829Z,100512.55
2023-04-01T15:31:25.541Z,100534.19
2023-04-01T15:34:25.493Z,100548.05
2023-04-01T15:37:17.273Z,100548.74
2023-04-01T15:40:00.351Z,100525.91
2023-04-01T15:43:02.123Z,100518.16
2023-04-01T15:46:03.604Z,100518.53
2023-04-01T15:49:05.653Z,100524.58
2023-04-01T15:51:51.354Z,100522.19
2023-04-01T15:54:44.636Z,100519.21
2023-04-01T15:57:43.125Z,100506.40
2023-04-01T16:00:32.649Z,100499.73
2023-04-01T16:03:42.987Z,100497.38
2023-04-01T16:06:17.329Z,100487.95
2023-04-01T16:09:14.216Z,100490.24
2023-04-01T16:11:48.311Z,100503.65
2023-04-01T16:14:38.525Z,100504.27
2023-04-01T16:17:31.498Z,100505.09
2023-04-01T16:20:48.502Z,100496.69
2023-04-01T16:23:29.882Z,100500.58
2023-04-01T16:26:12.520Z,100504.27
2023-04-01T16:29:27.099Z,100522.91
2023-04-01T16:32:00.448Z,100510.09
2023-04-01T16:34:57.658Z,100516.99
2023-04-01T16:37:50.692Z,100518.79
2023-04-01T16:40:37.529Z,100514.05
2023-04-01T16:43:11.684Z,100519.05
2023-04-01T16:46:00.151Z,100519.73
2023-04-01T16:48:56.448Z,100521.77
2023-04-01T16:51:48.983Z,100524.74
2023-04-01T16:54:32.113Z,100532.49
2023-04-01T16:57:26.886Z,100529.52
2023-04-01T17:00:29.965Z,100530.79
2023-04-01T17:03:19.722Z,100535.79
2023-04-01T17:06:00.784Z,100534.26
2023-04-01T17:08:57.998Z,100540.80
2023-04-01T17:12:01.847Z,100537.10
2023-04-01T17:14:51.627Z,100539.98
2023-04-01T17:18:04.796Z,100543.64
2023-04-01T17:20:49.064Z,100545.30
2023-04-01T17:23:42.134Z,100545.01
2023-04-01T17:26:41.365Z,100554.43
2023-04-01T17:29:20.928Z,100555.34
2023-04-01T17:31:56.263Z,100563.09
2023-04-01T17:34:45.285Z,100564.23
2023-04-01T17:37:44.471Z,100561.88
2023-04-01T17:40:36.967Z,100569.73
2023-04-01T17:43:38.675Z,100569.24
2023-04-01T17:47:12.590Z,100572.09
2023-04-01T17:50:15.149Z,100576.27
2023-04-01T17:53:06.988Z,100571.40
2023-04-01T17:55:53.487Z,100576.27
2023-04-01T17:58:38.410Z,100580.32
2023-04-01T18:01:34.038Z,100570.32
2023-04-01T18:04:04.146Z,100573.16
2023-04-01T18:07:02.878Z,100583.40
2023-04-01T18:09:52.827Z,100574.83
2023-04-01T18:13:06.275Z,100581.73
2023-04-01T18:16:05.977Z,100586.80
2023-04-01T18:19:05.047Z,100583.63
2023-04-01T18:21:50.986Z,100590.16
2023-04-01T18:24:27.985Z,100581.92
2023-04-01T18:27:20.722Z,100596.90
2023-04-01T18:30:01.513Z,100589.05
2023-04-01T18:32:52.703Z,100586.44
2023-04-01T18:35:30.679Z,100586.27
2023-04-01T18:38:37.712Z,100594.35
2023-04-01T18:41:18.179Z,100590.88
2023-04-01T18:44:19.932Z,100598.24
2023-04-01T18:47:18.315Z,100586.83
2023-04-01T18:50:01.703Z,100597.98
2023-04-01T18:52:44.334Z,100595.82
2023-04-01T18:55:32.542Z,100608.41
2023-04-01T18:58:25.993Z,100603.90
2023-04-01T19:01:13.140Z,100613.64
2023-04-01T19:04:09.977Z,100611.98
2023-04-01T19:07:03.055Z,100623.38
2023-04-01T19:09:52.286Z,100631.92
2023-04-01T19:12:49.341Z,100636.63
2023-04-01T19:15:31.406Z,100640.68
2023-04-01T19:18:18.323Z,100647.91
2023-04-01T19:21:15.024Z,100643.39
2023-04-01T19:26:52.931Z,100646.56
2023-04-01T19:29:38.937Z,100647.74
2023-04-01T19:32:55.868Z,100649.15
2023-04-01T19:35:57.908Z,100651.50
2023-04-01T19:39:05.000Z,100655.39
2023-04-01T19:41:57.925Z,100656.08
2023-04-01T19:44:58.542Z,100652.22
2023-04-01T19:47:51.623Z,100672.40
2023-04-01T19:50:50.052Z,100657.52
2023-04-01T19:53:36.923Z,100657.23
2023-04-01T19:56:26.544Z,100668.31
2023-04-01T19:59:29.359Z,100665.43
2023-04-01T20:02:37.227Z,100657.91
2023-04-01T20:05:53.292Z,100658.04
2023-04-01T20:09:01.128Z,100661.38
2023-04-01T20:12:07.858Z,100669.59
2023-04-01T20:14:58.879Z,100672.43
2023-04-01T20:17:29.268Z,100674.45
2023-04-01T20:20:17.988Z,100671.61
2023-04-01T20:22:51.450Z,100681.16
2023-04-01T20:25:46.250Z,100676.81
2023-04-01T20:28:40.739Z,100674.33
2023-04-01T20:31:27.471Z,100675.83
2023-04-01T20:34:13.644Z,100678.18
2023-04-01T20:40:49.258Z,100679.00
2023-04-01T20:43:36.306Z,100693.59
2023-04-01T20:46:19.360Z,100695.25
2023-04-01T20:49:06.535Z,100695.12
2023-04-01T20:51:47.736Z,100695.45
2023-04-01T20:54:40.877Z,100706.50
2023-04-01T20:57:24.682Z,100699.99
2023-04-01T21:00:36.069Z,100703.98
2023-04-01T21:07:13.492Z,100708.00
2023-04-01T21:10:10.513Z,100718.43
2023-04-01T21:13:06.492Z,100718.43
2023-04-01T21:16:07.797Z,100715.06
2023-04-01T21:18:57.452Z,100730.14
2023-04-01T21:21:54.130Z,100720.62
2023-04-01T21:25:09.099Z,100726.31
2023-04-01T21:34:52.664Z,100746.62
2023-04-01T21:37:47.437Z,100739.62
2023-04-01T21:40:36.997Z,100735.92
2023-04-01T21:43:42.494Z,100735.56
2023-04-01T21:47:02.869Z,100736.61
2023-04-01T21:49:49.501Z,100745.47
2023-04-01T21:52:26.766Z,100732.75
2023-04-01T21:55:31.859Z,100751.16
2023-04-01T21:58:26.914Z,100753.68
2023-04-01T22:01:18.640Z,100754.86
2023-04-01T22:04:12.448Z,100749.49
2023-04-01T22:06:46.458Z,100756.03
2023-04-01T22:09:47.334Z,100760.05
2023-04-01T22:12:29.478Z,100763.72
2023-04-01T22:15:47.327Z,100764.57
2023-04-01T22:19:00.531Z,100764.41
2023-04-01T22:21:54.437Z,100760.38
2023-04-01T22:24:38.998Z,100763.03
2023-04-01T22:27:33.000Z,100768.23
2023-04-01T22:30:26.041Z,100770.06
2023-04-01T22:33:01.019Z,100767.09
2023-04-01T22:35:54.136Z,100771.11
2023-04-01T22:38:55.839Z,100774.93
2023-04-01T22:42:00.737Z,100780.98
2023-04-01T22:45:35.667Z,100782.48
2023-04-01T22:48:21.944Z,100793.05
2023-04-01T22:51:18.368Z,100800.37
2023-04-01T22:54:11.724Z,100798.38
2023-04-01T22:56:45.956Z,100804.42
2023-04-01T22:59:47.089Z,100805.57
2023-04-01T23:02:25.339Z,100800.89
2023-04-01T23:04:58.973Z,100797.69
2023-04-01T23:07:48.759Z,100804.39
2023-04-01T23:10:40.026Z,100810.41
2023-04-01T23:13:13.643Z,100811.26
2023-04-01T23:15:46.657Z,100813.77
2023-04-01T23:18:49.275Z,100818.77
2023-04-01T23:21:40.826Z,100809.75
2023-04-01T23:24:29.949Z,100808.25
2023-04-01T23:27:22.370Z,100807.56
2023-04-01T23:29:51.761Z,100811.42
2023-04-01T23:32:27.200Z,100810.24
2023-04-01T23:35:00.451Z,100815.24
2023-04-01T23:37:33.756Z,100810.73
2023-04-01T23:40:08.273Z,100807.92
2023-04-01T23:42:47.280Z,100816.26
2023-04-01T23:45:27.251Z,100813.74
2023-04-01T23:48:10.807Z,100817.93
2023-04-01T23:50:44.441Z,100806.68
2023-04-01T23:53:31.834Z,100813.91
2023-04-01T23:56:03.436Z,100819.43
2023-04-01T23:58:50.583Z,100825.94
